sensor_id;sensor_type;location;lat;lon;timestamp;P1;durP1;ratioP1;P2;durP2;ratioP2
29712;SDS011;16623;53.632;10.016;2023-06-19T00:02:16;8.43;;;4.88;;
29712;SDS011;16623;53.632;10.016;2023-06-19T00:04:41;6.07;;;5.28;;
29712;SDS011;16623;53.632;10.016;2023-06-19T00:07:07;7.35;;;5.13;;
29712;SDS011;16623;53.632;10.016;2023-06-19T00:09:33;6.15;;;5.07;;
29712;SDS011;16623;53.632;10.016;2023-06-19T00:11:58;9.25;;;5.18;;
29712;SDS011;16623;53.632;10.016;2023-06-19T00:14:24;5.72;;;4.75;;
29712;SDS011;16623;53.632;10.016;2023-06-19T00:16:50;6.78;;;5.13;;
29712;SDS011;16623;53.632;10.016;2023-06-19T00:19:16;6.70;;;4.85;;
29712;SDS011;16623;53.632;10.016;2023-06-19T00:21:42;10.20;;;5.63;;
29712;SDS011;16623;53.632;10.016;2023-06-19T00:24:08;8.27;;;5.65;;
29712;SDS011;16623;53.632;10.016;2023-06-19T00:26:35;7.25;;;5.10;;
29712;SDS011;16623;53.632;10.016;2023-06-19T00:29:00;6.53;;;5.25;;
29712;SDS011;16623;53.632;10.016;2023-06-19T00:31:26;7.32;;;5.20;;
29712;SDS011;16623;53.632;10.016;2023-06-19T00:33:53;8.15;;;6.03;;
29712;SDS011;16623;53.632;10.016;2023-06-19T00:36:19;7.50;;;5.72;;
29712;SDS011;16623;53.632;10.016;2023-06-19T00:38:46;6.97;;;5.63;;
29712;SDS011;16623;53.632;10.016;2023-06-19T00:41:12;9.27;;;5.40;;
29712;SDS011;16623;53.632;10.016;2023-06-19T00:43:37;7.03;;;5.38;;
29712;SDS011;16623;53.632;10.016;2023-06-19T00:46:03;6.95;;;5.47;;
29712;SDS011;16623;53.632;10.016;2023-06-19T00:48:29;6.10;;;5.10;;
29712;SDS011;16623;53.632;10.016;2023-06-19T00:50:56;13.57;;;6.05;;
29712;SDS011;16623;53.632;10.016;2023-06-19T00:53:23;8.38;;;5.72;;
29712;SDS011;16623;53.632;10.016;2023-06-19T00:55:52;7.82;;;5.22;;
29712;SDS011;16623;53.632;10.016;2023-06-19T00:58:19;8.00;;;5.30;;
29712;SDS011;16623;53.632;10.016;2023-06-19T01:00:46;12.07;;;6.13;;
29712;SDS011;16623;53.632;10.016;2023-06-19T01:03:15;7.80;;;5.13;;
29712;SDS011;16623;53.632;10.016;2023-06-19T01:05:40;10.02;;;6.18;;
29712;SDS011;16623;53.632;10.016;2023-06-19T01:08:22;14.13;;;5.88;;
29712;SDS011;16623;53.632;10.016;2023-06-19T01:11:10;7.22;;;5.38;;
29712;SDS011;16623;53.632;10.016;2023-06-19T01:16:13;7.38;;;5.40;;
29712;SDS011;16623;53.632;10.016;2023-06-19T01:18:42;6.05;;;5.05;;
29712;SDS011;16623;53.632;10.016;2023-06-19T01:21:12;7.40;;;5.60;;
29712;SDS011;16623;53.632;10.016;2023-06-19T01:23:40;12.13;;;5.38;;
29712;SDS011;16623;53.632;10.016;2023-06-19T01:26:06;8.55;;;5.53;;
29712;SDS011;16623;53.632;10.016;2023-06-19T01:28:33;9.32;;;5.32;;
29712;SDS011;16623;53.632;10.016;2023-06-19T01:31:01;7.43;;;5.13;;
29712;SDS011;16623;53.632;10.016;2023-06-19T01:33:30;6.95;;;5.70;;
29712;SDS011;16623;53.632;10.016;2023-06-19T01:35:58;9.18;;;5.80;;
29712;SDS011;16623;53.632;10.016;2023-06-19T01:38:24;6.45;;;5.57;;
29712;SDS011;16623;53.632;10.016;2023-06-19T01:40:55;5.93;;;5.22;;
29712;SDS011;16623;53.632;10.016;2023-06-19T01:43:23;10.90;;;5.25;;
29712;SDS011;16623;53.632;10.016;2023-06-19T01:45:49;6.85;;;5.47;;
29712;SDS011;16623;53.632;10.016;2023-06-19T01:48:15;10.93;;;5.40;;
29712;SDS011;16623;53.632;10.016;2023-06-19T01:50:44;7.65;;;5.22;;
29712;SDS011;16623;53.632;10.016;2023-06-19T01:53:12;6.07;;;5.50;;
29712;SDS011;16623;53.632;10.016;2023-06-19T01:55:37;6.85;;;5.75;;
29712;SDS011;16623;53.632;10.016;2023-06-19T01:58:03;9.93;;;5.93;;
29712;SDS011;16623;53.632;10.016;2023-06-19T02:00:28;7.95;;;6.30;;
29712;SDS011;16623;53.632;10.016;2023-06-19T02:02:55;7.68;;;5.57;;
29712;SDS011;16623;53.632;10.016;2023-06-19T02:05:21;9.02;;;5.75;;
29712;SDS011;16623;53.632;10.016;2023-06-19T02:07:46;7.68;;;6.10;;
29712;SDS011;16623;53.632;10.016;2023-06-19T02:10:12;8.75;;;5.70;;
29712;SDS011;16623;53.632;10.016;2023-06-19T02:12:38;9.27;;;6.10;;
29712;SDS011;16623;53.632;10.016;2023-06-19T02:15:03;6.57;;;5.30;;
29712;SDS011;16623;53.632;10.016;2023-06-19T02:17:29;9.35;;;6.40;;
29712;SDS011;16623;53.632;10.016;2023-06-19T02:19:55;5.93;;;4.93;;
29712;SDS011;16623;53.632;10.016;2023-06-19T02:22:21;6.93;;;6.03;;
29712;SDS011;16623;53.632;10.016;2023-06-19T02:24:46;7.97;;;5.88;;
29712;SDS011;16623;53.632;10.016;2023-06-19T02:27:12;7.05;;;5.55;;
29712;SDS011;16623;53.632;10.016;2023-06-19T02:29:37;7.45;;;5.70;;
29712;SDS011;16623;53.632;10.016;2023-06-19T02:32:03;7.95;;;6.07;;
29712;SDS011;16623;53.632;10.016;2023-06-19T02:34:29;8.10;;;5.63;;
29712;SDS011;16623;53.632;10.016;2023-06-19T02:36:54;9.20;;;6.50;;
29712;SDS011;16623;53.632;10.016;2023-06-19T02:39:20;12.55;;;6.18;;
29712;SDS011;16623;53.632;10.016;2023-06-19T02:41:46;8.93;;;6.07;;
29712;SDS011;16623;53.632;10.016;2023-06-19T02:44:12;11.25;;;6.45;;
29712;SDS011;16623;53.632;10.016;2023-06-19T02:46:38;7.63;;;5.95;;
29712;SDS011;16623;53.632;10.016;2023-06-19T02:49:04;8.75;;;6.22;;
29712;SDS011;16623;53.632;10.016;2023-06-19T02:51:30;7.47;;;6.13;;
29712;SDS011;16623;53.632;10.016;2023-06-19T02:53:55;8.23;;;6.05;;
29712;SDS011;16623;53.632;10.016;2023-06-19T02:56:21;9.20;;;5.90;;
29712;SDS011;16623;53.632;10.016;2023-06-19T02:58:47;9.30;;;6.40;;
29712;SDS011;16623;53.632;10.016;2023-06-19T03:01:12;12.77;;;6.00;;
29712;SDS011;16623;53.632;10.016;2023-06-19T03:03:38;7.68;;;6.18;;
29712;SDS011;16623;53.632;10.016;2023-06-19T03:06:05;6.68;;;5.85;;
29712;SDS011;16623;53.632;10.016;2023-06-19T03:08:32;8.43;;;6.47;;
29712;SDS011;16623;53.632;10.016;2023-06-19T03:10:58;7.93;;;6.05;;
29712;SDS011;16623;53.632;10.016;2023-06-19T03:13:24;10.63;;;6.28;;
29712;SDS011;16623;53.632;10.016;2023-06-19T03:15:51;9.50;;;6.50;;
29712;SDS011;16623;53.632;10.016;2023-06-19T03:18:17;11.13;;;6.75;;
29712;SDS011;16623;53.632;10.016;2023-06-19T03:20:42;11.48;;;6.28;;
29712;SDS011;16623;53.632;10.016;2023-06-19T03:23:08;7.53;;;6.07;;
29712;SDS011;16623;53.632;10.016;2023-06-19T03:25:33;7.00;;;6.30;;
29712;SDS011;16623;53.632;10.016;2023-06-19T03:28:03;10.65;;;6.85;;
29712;SDS011;16623;53.632;10.016;2023-06-19T03:30:29;7.38;;;6.05;;
29712;SDS011;16623;53.632;10.016;2023-06-19T03:32:55;9.73;;;6.68;;
29712;SDS011;16623;53.632;10.016;2023-06-19T03:35:20;8.88;;;6.45;;
29712;SDS011;16623;53.632;10.016;2023-06-19T03:37:46;7.78;;;6.63;;
29712;SDS011;16623;53.632;10.016;2023-06-19T03:40:12;8.23;;;6.20;;
29712;SDS011;16623;53.632;10.016;2023-06-19T03:42:39;9.98;;;7.15;;
29712;SDS011;16623;53.632;10.016;2023-06-19T03:45:05;9.75;;;6.95;;
29712;SDS011;16623;53.632;10.016;2023-06-19T03:47:31;8.65;;;6.75;;
29712;SDS011;16623;53.632;10.016;2023-06-19T03:49:57;12.73;;;6.60;;
29712;SDS011;16623;53.632;10.016;2023-06-19T03:52:22;8.02;;;6.43;;
29712;SDS011;16623;53.632;10.016;2023-06-19T03:54:48;9.07;;;6.47;;
29712;SDS011;16623;53.632;10.016;2023-06-19T03:57:13;10.20;;;7.18;;
29712;SDS011;16623;53.632;10.016;2023-06-19T03:59:39;8.05;;;7.18;;
29712;SDS011;16623;53.632;10.016;2023-06-19T04:02:07;8.27;;;6.70;;
29712;SDS011;16623;53.632;10.016;2023-06-19T04:04:33;9.40;;;6.88;;
29712;SDS011;16623;53.632;10.016;2023-06-19T04:06:58;8.98;;;6.32;;
29712;SDS011;16623;53.632;10.016;2023-06-19T04:09:24;15.40;;;6.47;;
29712;SDS011;16623;53.632;10.016;2023-06-19T04:11:50;8.95;;;6.63;;
29712;SDS011;16623;53.632;10.016;2023-06-19T04:14:15;9.38;;;6.22;;
29712;SDS011;16623;53.632;10.016;2023-06-19T04:16:41;8.50;;;6.45;;
29712;SDS011;16623;53.632;10.016;2023-06-19T04:19:06;13.52;;;6.35;;
29712;SDS011;16623;53.632;10.016;2023-06-19T04:21:32;8.65;;;6.88;;
29712;SDS011;16623;53.632;10.016;2023-06-19T04:23:57;8.82;;;6.70;;
29712;SDS011;16623;53.632;10.016;2023-06-19T04:26:23;7.28;;;6.07;;
29712;SDS011;16623;53.632;10.016;2023-06-19T04:28:49;9.25;;;6.97;;
29712;SDS011;16623;53.632;10.016;2023-06-19T04:31:15;10.77;;;7.75;;
29712;SDS011;16623;53.632;10.016;2023-06-19T04:33:43;8.15;;;7.22;;
29712;SDS011;16623;53.632;10.016;2023-06-19T04:36:10;10.10;;;6.93;;
29712;SDS011;16623;53.632;10.016;2023-06-19T04:38:35;9.95;;;7.22;;
29712;SDS011;16623;53.632;10.016;2023-06-19T04:41:01;8.18;;;6.80;;
29712;SDS011;16623;53.632;10.016;2023-06-19T04:43:27;9.23;;;7.20;;
29712;SDS011;16623;53.632;10.016;2023-06-19T04:45:52;7.55;;;6.57;;
29712;SDS011;16623;53.632;10.016;2023-06-19T04:48:18;7.93;;;6.65;;
29712;SDS011;16623;53.632;10.016;2023-06-19T04:50:44;8.15;;;7.13;;
29712;SDS011;16623;53.632;10.016;2023-06-19T04:53:11;12.85;;;7.25;;
29712;SDS011;16623;53.632;10.016;2023-06-19T04:55:36;7.45;;;6.65;;
29712;SDS011;16623;53.632;10.016;2023-06-19T04:58:02;9.52;;;7.22;;
29712;SDS011;16623;53.632;10.016;2023-06-19T05:00:28;11.77;;;7.25;;
29712;SDS011;16623;53.632;10.016;2023-06-19T05:02:53;10.20;;;6.88;;
29712;SDS011;16623;53.632;10.016;2023-06-19T05:05:23;12.88;;;6.57;;
29712;SDS011;16623;53.632;10.016;2023-06-19T05:07:48;8.70;;;7.70;;
29712;SDS011;16623;53.632;10.016;2023-06-19T05:10:14;9.63;;;7.90;;
29712;SDS011;16623;53.632;10.016;2023-06-19T05:12:39;9.25;;;7.32;;
29712;SDS011;16623;53.632;10.016;2023-06-19T05:15:05;11.13;;;7.45;;
29712;SDS011;16623;53.632;10.016;2023-06-19T05:17:31;10.98;;;7.03;;
29712;SDS011;16623;53.632;10.016;2023-06-19T05:19:57;8.80;;;7.20;;
29712;SDS011;16623;53.632;10.016;2023-06-19T05:22:22;9.40;;;7.03;;
29712;SDS011;16623;53.632;10.016;2023-06-19T05:24:49;10.60;;;7.95;;
29712;SDS011;16623;53.632;10.016;2023-06-19T05:27:14;15.27;;;7.47;;
29712;SDS011;16623;53.632;10.016;2023-06-19T05:29:40;8.98;;;7.35;;
29712;SDS011;16623;53.632;10.016;2023-06-19T05:32:05;22.67;;;8.70;;
29712;SDS011;16623;53.632;10.016;2023-06-19T05:34:31;10.95;;;7.55;;
29712;SDS011;16623;53.632;10.016;2023-06-19T05:36:57;11.52;;;7.20;;
29712;SDS011;16623;53.632;10.016;2023-06-19T05:39:23;12.20;;;7.53;;
29712;SDS011;16623;53.632;10.016;2023-06-19T05:41:48;11.02;;;6.65;;
29712;SDS011;16623;53.632;10.016;2023-06-19T05:44:14;14.55;;;8.13;;
29712;SDS011;16623;53.632;10.016;2023-06-19T05:46:41;7.88;;;7.03;;
29712;SDS011;16623;53.632;10.016;2023-06-19T05:49:07;8.95;;;7.45;;
29712;SDS011;16623;53.632;10.016;2023-06-19T05:51:33;13.18;;;7.65;;
29712;SDS011;16623;53.632;10.016;2023-06-19T05:53:58;12.18;;;8.15;;
29712;SDS011;16623;53.632;10.016;2023-06-19T05:56:28;16.08;;;7.55;;
29712;SDS011;16623;53.632;10.016;2023-06-19T05:58:55;12.07;;;7.45;;
29712;SDS011;16623;53.632;10.016;2023-06-19T06:01:21;14.30;;;8.02;;
29712;SDS011;16623;53.632;10.016;2023-06-19T06:03:46;13.68;;;7.13;;
29712;SDS011;16623;53.632;10.016;2023-06-19T06:06:12;10.88;;;7.45;;
29712;SDS011;16623;53.632;10.016;2023-06-19T06:08:37;13.15;;;7.75;;
29712;SDS011;16623;53.632;10.016;2023-06-19T06:11:03;8.55;;;6.72;;
29712;SDS011;16623;53.632;10.016;2023-06-19T06:13:29;10.88;;;8.23;;
29712;SDS011;16623;53.632;10.016;2023-06-19T06:15:54;11.48;;;8.00;;
29712;SDS011;16623;53.632;10.016;2023-06-19T06:18:20;13.48;;;7.75;;
29712;SDS011;16623;53.632;10.016;2023-06-19T06:20:45;8.93;;;7.40;;
29712;SDS011;16623;53.632;10.016;2023-06-19T06:23:11;13.95;;;8.50;;
29712;SDS011;16623;53.632;10.016;2023-06-19T06:25:37;8.80;;;7.90;;
29712;SDS011;16623;53.632;10.016;2023-06-19T06:28:02;9.50;;;7.63;;
29712;SDS011;16623;53.632;10.016;2023-06-19T06:30:28;11.38;;;7.85;;
29712;SDS011;16623;53.632;10.016;2023-06-19T06:32:53;10.45;;;7.97;;
29712;SDS011;16623;53.632;10.016;2023-06-19T06:35:19;9.93;;;7.80;;
29712;SDS011;16623;53.632;10.016;2023-06-19T06:37:44;15.77;;;8.98;;
29712;SDS011;16623;53.632;10.016;2023-06-19T06:40:11;10.27;;;8.20;;
29712;SDS011;16623;53.632;10.016;2023-06-19T06:42:37;15.80;;;8.38;;
29712;SDS011;16623;53.632;10.016;2023-06-19T06:45:04;13.50;;;8.82;;
29712;SDS011;16623;53.632;10.016;2023-06-19T06:47:31;11.35;;;8.55;;
29712;SDS011;16623;53.632;10.016;2023-06-19T06:49:57;8.88;;;7.63;;
29712;SDS011;16623;53.632;10.016;2023-06-19T06:52:22;21.15;;;8.93;;
29712;SDS011;16623;53.632;10.016;2023-06-19T06:54:49;12.00;;;8.57;;
29712;SDS011;16623;53.632;10.016;2023-06-19T06:57:14;11.55;;;8.23;;
29712;SDS011;16623;53.632;10.016;2023-06-19T06:59:40;12.68;;;7.90;;
29712;SDS011;16623;53.632;10.016;2023-06-19T07:02:05;12.38;;;8.57;;
29712;SDS011;16623;53.632;10.016;2023-06-19T07:04:31;15.15;;;8.95;;
29712;SDS011;16623;53.632;10.016;2023-06-19T07:06:57;12.38;;;8.88;;
29712;SDS011;16623;53.632;10.016;2023-06-19T07:09:23;13.00;;;9.35;;
29712;SDS011;16623;53.632;10.016;2023-06-19T07:11:49;10.13;;;7.95;;
29712;SDS011;16623;53.632;10.016;2023-06-19T07:14:15;12.73;;;9.82;;
29712;SDS011;16623;53.632;10.016;2023-06-19T07:16:46;12.27;;;9.30;;
29712;SDS011;16623;53.632;10.016;2023-06-19T07:19:12;19.75;;;9.40;;
29712;SDS011;16623;53.632;10.016;2023-06-19T07:21:38;11.68;;;9.00;;
29712;SDS011;16623;53.632;10.016;2023-06-19T07:24:05;13.82;;;8.82;;
29712;SDS011;16623;53.632;10.016;2023-06-19T07:26:31;16.88;;;8.98;;
29712;SDS011;16623;53.632;10.016;2023-06-19T07:28:57;11.00;;;9.57;;
29712;SDS011;16623;53.632;10.016;2023-06-19T07:31:22;12.98;;;9.40;;
29712;SDS011;16623;53.632;10.016;2023-06-19T07:33:48;12.75;;;9.27;;
29712;SDS011;16623;53.632;10.016;2023-06-19T07:36:13;14.10;;;9.48;;
29712;SDS011;16623;53.632;10.016;2023-06-19T07:38:41;13.18;;;9.98;;
29712;SDS011;16623;53.632;10.016;2023-06-19T07:41:08;13.27;;;9.38;;
29712;SDS011;16623;53.632;10.016;2023-06-19T07:43:35;16.02;;;9.10;;
29712;SDS011;16623;53.632;10.016;2023-06-19T07:46:01;12.45;;;9.55;;
29712;SDS011;16623;53.632;10.016;2023-06-19T07:48:26;9.70;;;8.68;;
29712;SDS011;16623;53.632;10.016;2023-06-19T07:50:53;11.90;;;9.82;;
29712;SDS011;16623;53.632;10.016;2023-06-19T07:53:19;11.95;;;9.85;;
29712;SDS011;16623;53.632;10.016;2023-06-19T07:55:45;12.93;;;9.57;;
29712;SDS011;16623;53.632;10.016;2023-06-19T07:58:10;10.05;;;8.60;;
29712;SDS011;16623;53.632;10.016;2023-06-19T08:00:36;13.35;;;9.32;;
29712;SDS011;16623;53.632;10.016;2023-06-19T08:03:02;11.75;;;8.73;;
29712;SDS011;16623;53.632;10.016;2023-06-19T08:05:27;11.63;;;8.93;;
29712;SDS011;16623;53.632;10.016;2023-06-19T08:07:53;12.43;;;9.30;;
29712;SDS011;16623;53.632;10.016;2023-06-19T08:10:20;10.32;;;9.18;;
29712;SDS011;16623;53.632;10.016;2023-06-19T08:12:45;12.02;;;9.95;;
29712;SDS011;16623;53.632;10.016;2023-06-19T08:15:11;20.55;;;9.82;;
29712;SDS011;16623;53.632;10.016;2023-06-19T08:17:38;13.77;;;9.10;;
29712;SDS011;16623;53.632;10.016;2023-06-19T08:20:04;12.93;;;9.25;;
29712;SDS011;16623;53.632;10.016;2023-06-19T08:22:30;12.18;;;9.35;;
29712;SDS011;16623;53.632;10.016;2023-06-19T08:24:56;11.93;;;9.50;;
29712;SDS011;16623;53.632;10.016;2023-06-19T08:27:21;10.75;;;9.20;;
29712;SDS011;16623;53.632;10.016;2023-06-19T08:29:47;11.82;;;9.40;;
29712;SDS011;16623;53.632;10.016;2023-06-19T08:32:13;17.35;;;9.77;;
29712;SDS011;16623;53.632;10.016;2023-06-19T08:34:38;13.35;;;10.73;;
29712;SDS011;16623;53.632;10.016;2023-06-19T08:37:05;10.95;;;9.10;;
29712;SDS011;16623;53.632;10.016;2023-06-19T08:39:31;13.95;;;9.70;;
29712;SDS011;16623;53.632;10.016;2023-06-19T08:41:56;18.65;;;10.73;;
29712;SDS011;16623;53.632;10.016;2023-06-19T08:44:22;10.73;;;8.50;;
29712;SDS011;16623;53.632;10.016;2023-06-19T08:46:47;14.80;;;9.73;;
29712;SDS011;16623;53.632;10.016;2023-06-19T08:49:13;15.35;;;8.98;;
29712;SDS011;16623;53.632;10.016;2023-06-19T08:51:40;11.23;;;8.63;;
29712;SDS011;16623;53.632;10.016;2023-06-19T08:54:07;13.27;;;9.70;;
29712;SDS011;16623;53.632;10.016;2023-06-19T08:56:34;10.55;;;9.05;;
29712;SDS011;16623;53.632;10.016;2023-06-19T08:59:12;19.23;;;8.82;;
29712;SDS011;16623;53.632;10.016;2023-06-19T09:01:39;11.55;;;9.38;;
29712;SDS011;16623;53.632;10.016;2023-06-19T09:04:11;11.27;;;9.45;;
29712;SDS011;16623;53.632;10.016;2023-06-19T09:06:46;17.65;;;8.85;;
29712;SDS011;16623;53.632;10.016;2023-06-19T09:11:41;15.57;;;9.13;;
29712;SDS011;16623;53.632;10.016;2023-06-19T09:14:09;14.65;;;9.48;;
29712;SDS011;16623;53.632;10.016;2023-06-19T09:16:36;12.63;;;8.73;;
29712;SDS011;16623;53.632;10.016;2023-06-19T09:19:05;12.35;;;8.85;;
29712;SDS011;16623;53.632;10.016;2023-06-19T09:21:35;16.00;;;9.15;;
29712;SDS011;16623;53.632;10.016;2023-06-19T09:24:03;12.32;;;8.45;;
29712;SDS011;16623;53.632;10.016;2023-06-19T09:26:29;15.13;;;8.85;;
29712;SDS011;16623;53.632;10.016;2023-06-19T09:28:55;10.02;;;8.40;;
29712;SDS011;16623;53.632;10.016;2023-06-19T09:31:30;14.35;;;9.35;;
29712;SDS011;16623;53.632;10.016;2023-06-19T09:33:59;10.15;;;8.32;;
29712;SDS011;16623;53.632;10.016;2023-06-19T09:36:24;13.25;;;9.20;;
29712;SDS011;16623;53.632;10.016;2023-06-19T09:38:51;14.27;;;8.90;;
29712;SDS011;16623;53.632;10.016;2023-06-19T09:41:17;9.65;;;8.40;;
29712;SDS011;16623;53.632;10.016;2023-06-19T09:43:46;11.43;;;8.52;;
29712;SDS011;16623;53.632;10.016;2023-06-19T09:46:14;10.63;;;8.13;;
29712;SDS011;16623;53.632;10.016;2023-06-19T09:48:44;13.50;;;8.32;;
29712;SDS011;16623;53.632;10.016;2023-06-19T09:51:18;9.23;;;7.50;;
29712;SDS011;16623;53.632;10.016;2023-06-19T09:53:45;16.17;;;8.85;;
29712;SDS011;16623;53.632;10.016;2023-06-19T09:56:12;12.93;;;8.77;;
29712;SDS011;16623;53.632;10.016;2023-06-19T09:58:38;10.45;;;8.52;;
29712;SDS011;16623;53.632;10.016;2023-06-19T10:01:05;12.02;;;8.10;;
29712;SDS011;16623;53.632;10.016;2023-06-19T10:03:32;11.98;;;8.77;;
29712;SDS011;16623;53.632;10.016;2023-06-19T10:06:03;16.23;;;9.90;;
29712;SDS011;16623;53.632;10.016;2023-06-19T10:08:30;11.23;;;9.60;;
29712;SDS011;16623;53.632;10.016;2023-06-19T10:11:03;11.27;;;8.80;;
29712;SDS011;16623;53.632;10.016;2023-06-19T10:13:35;17.70;;;9.40;;
29712;SDS011;16623;53.632;10.016;2023-06-19T10:16:05;14.73;;;9.52;;
29712;SDS011;16623;53.632;10.016;2023-06-19T10:18:32;10.70;;;9.35;;
29712;SDS011;16623;53.632;10.016;2023-06-19T10:21:15;9.85;;;8.90;;
29712;SDS011;16623;53.632;10.016;2023-06-19T10:23:52;18.02;;;9.57;;
29712;SDS011;16623;53.632;10.016;2023-06-19T10:26:19;13.25;;;8.40;;
29712;SDS011;16623;53.632;10.016;2023-06-19T10:28:46;16.10;;;8.93;;
29712;SDS011;16623;53.632;10.016;2023-06-19T10:31:14;14.48;;;10.02;;
29712;SDS011;16623;53.632;10.016;2023-06-19T10:33:45;12.63;;;9.98;;
29712;SDS011;16623;53.632;10.016;2023-06-19T10:36:18;11.70;;;8.95;;
29712;SDS011;16623;53.632;10.016;2023-06-19T10:38:45;14.90;;;9.30;;
29712;SDS011;16623;53.632;10.016;2023-06-19T10:41:21;12.07;;;9.40;;
29712;SDS011;16623;53.632;10.016;2023-06-19T10:44:01;12.88;;;9.45;;
29712;SDS011;16623;53.632;10.016;2023-06-19T10:46:32;12.30;;;8.90;;
29712;SDS011;16623;53.632;10.016;2023-06-19T10:49:05;14.80;;;9.32;;
29712;SDS011;16623;53.632;10.016;2023-06-19T10:51:39;10.80;;;8.93;;
29712;SDS011;16623;53.632;10.016;2023-06-19T10:54:07;12.45;;;9.52;;
29712;SDS011;16623;53.632;10.016;2023-06-19T10:56:33;12.00;;;9.40;;
29712;SDS011;16623;53.632;10.016;2023-06-19T10:59:02;10.25;;;9.25;;
29712;SDS011;16623;53.632;10.016;2023-06-19T11:01:37;14.48;;;9.70;;
29712;SDS011;16623;53.632;10.016;2023-06-19T11:04:07;10.70;;;9.40;;
29712;SDS011;16623;53.632;10.016;2023-06-19T11:06:35;16.60;;;9.32;;
29712;SDS011;16623;53.632;10.016;2023-06-19T11:09:02;11.65;;;8.95;;
29712;SDS011;16623;53.632;10.016;2023-06-19T11:11:46;14.20;;;9.27;;
29712;SDS011;16623;53.632;10.016;2023-06-19T11:14:13;11.02;;;9.27;;
29712;SDS011;16623;53.632;10.016;2023-06-19T11:16:41;14.25;;;9.32;;
29712;SDS011;16623;53.632;10.016;2023-06-19T11:19:07;12.20;;;9.73;;
29712;SDS011;16623;53.632;10.016;2023-06-19T11:21:34;14.07;;;9.80;;
29712;SDS011;16623;53.632;10.016;2023-06-19T11:24:05;17.88;;;10.45;;
29712;SDS011;16623;53.632;10.016;2023-06-19T11:26:39;11.35;;;9.63;;
29712;SDS011;16623;53.632;10.016;2023-06-19T11:29:21;12.00;;;9.65;;
29712;SDS011;16623;53.632;10.016;2023-06-19T11:31:48;11.55;;;9.40;;
29712;SDS011;16623;53.632;10.016;2023-06-19T11:34:16;12.60;;;9.05;;
29712;SDS011;16623;53.632;10.016;2023-06-19T11:36:42;16.38;;;9.63;;
29712;SDS011;16623;53.632;10.016;2023-06-19T11:39:12;18.60;;;9.80;;
29712;SDS011;16623;53.632;10.016;2023-06-19T11:41:39;16.25;;;8.95;;
29712;SDS011;16623;53.632;10.016;2023-06-19T11:44:05;9.43;;;7.47;;
29712;SDS011;16623;53.632;10.016;2023-06-19T11:46:32;8.25;;;6.97;;
29712;SDS011;16623;53.632;10.016;2023-06-19T11:49:15;8.23;;;7.22;;
29712;SDS011;16623;53.632;10.016;2023-06-19T11:51:44;9.18;;;7.07;;
29712;SDS011;16623;53.632;10.016;2023-06-19T11:54:11;7.78;;;6.90;;
29712;SDS011;16623;53.632;10.016;2023-06-19T11:56:39;13.25;;;6.70;;
29712;SDS011;16623;53.632;10.016;2023-06-19T11:59:06;10.10;;;7.25;;
29712;SDS011;16623;53.632;10.016;2023-06-19T12:01:32;9.13;;;7.63;;
29712;SDS011;16623;53.632;10.016;2023-06-19T12:03:59;9.68;;;7.00;;
29712;SDS011;16623;53.632;10.016;2023-06-19T12:06:26;11.80;;;6.72;;
29712;SDS011;16623;53.632;10.016;2023-06-19T12:08:52;9.93;;;6.30;;
29712;SDS011;16623;53.632;10.016;2023-06-19T12:11:18;10.43;;;7.40;;
29712;SDS011;16623;53.632;10.016;2023-06-19T12:13:44;16.75;;;7.18;;
29712;SDS011;16623;53.632;10.016;2023-06-19T12:16:10;8.57;;;6.75;;
29712;SDS011;16623;53.632;10.016;2023-06-19T12:18:35;8.82;;;7.22;;
29712;SDS011;16623;53.632;10.016;2023-06-19T12:21:02;7.97;;;6.32;;
29712;SDS011;16623;53.632;10.016;2023-06-19T12:23:28;9.15;;;6.97;;
29712;SDS011;16623;53.632;10.016;2023-06-19T12:25:53;8.93;;;6.60;;
29712;SDS011;16623;53.632;10.016;2023-06-19T12:28:19;7.15;;;6.00;;
29712;SDS011;16623;53.632;10.016;2023-06-19T12:30:46;7.43;;;6.40;;
29712;SDS011;16623;53.632;10.016;2023-06-19T12:33:17;10.55;;;6.60;;
29712;SDS011;16623;53.632;10.016;2023-06-19T12:35:43;9.07;;;6.70;;
29712;SDS011;16623;53.632;10.016;2023-06-19T12:38:09;16.20;;;6.68;;
29712;SDS011;16623;53.632;10.016;2023-06-19T12:40:38;10.48;;;5.88;;
29712;SDS011;16623;53.632;10.016;2023-06-19T12:43:04;9.65;;;6.10;;
29712;SDS011;16623;53.632;10.016;2023-06-19T12:45:30;7.72;;;6.18;;
29712;SDS011;16623;53.632;10.016;2023-06-19T12:47:56;8.68;;;6.30;;
29712;SDS011;16623;53.632;10.016;2023-06-19T12:50:21;8.73;;;6.13;;
29712;SDS011;16623;53.632;10.016;2023-06-19T12:52:47;6.68;;;5.88;;
29712;SDS011;16623;53.632;10.016;2023-06-19T12:55:12;11.88;;;6.05;;
29712;SDS011;16623;53.632;10.016;2023-06-19T12:57:38;11.70;;;6.65;;
29712;SDS011;16623;53.632;10.016;2023-06-19T13:00:05;8.25;;;6.13;;
29712;SDS011;16623;53.632;10.016;2023-06-19T13:02:35;9.68;;;6.20;;
29712;SDS011;16623;53.632;10.016;2023-06-19T13:05:00;6.18;;;5.38;;
29712;SDS011;16623;53.632;10.016;2023-06-19T13:07:26;7.45;;;6.30;;
29712;SDS011;16623;53.632;10.016;2023-06-19T13:09:52;8.52;;;5.43;;
29712;SDS011;16623;53.632;10.016;2023-06-19T13:12:17;9.70;;;5.95;;
29712;SDS011;16623;53.632;10.016;2023-06-19T13:14:43;12.07;;;6.15;;
29712;SDS011;16623;53.632;10.016;2023-06-19T13:17:08;12.85;;;7.00;;
29712;SDS011;16623;53.632;10.016;2023-06-19T13:19:34;16.02;;;6.38;;
29712;SDS011;16623;53.632;10.016;2023-06-19T13:21:59;10.23;;;5.30;;
29712;SDS011;16623;53.632;10.016;2023-06-19T13:24:25;10.02;;;5.32;;
29712;SDS011;16623;53.632;10.016;2023-06-19T13:26:54;9.25;;;5.47;;
29712;SDS011;16623;53.632;10.016;2023-06-19T13:29:19;8.18;;;5.78;;
29712;SDS011;16623;53.632;10.016;2023-06-19T13:31:45;6.30;;;5.10;;
29712;SDS011;16623;53.632;10.016;2023-06-19T13:34:11;10.10;;;5.05;;
29712;SDS011;16623;53.632;10.016;2023-06-19T13:36:38;5.22;;;4.60;;
29712;SDS011;16623;53.632;10.016;2023-06-19T13:39:05;5.93;;;4.70;;
29712;SDS011;16623;53.632;10.016;2023-06-19T13:41:31;11.48;;;5.47;;
29712;SDS011;16623;53.632;10.016;2023-06-19T13:44:01;7.72;;;5.43;;
29712;SDS011;16623;53.632;10.016;2023-06-19T13:46:27;8.63;;;5.18;;
29712;SDS011;16623;53.632;10.016;2023-06-19T13:48:54;6.03;;;4.50;;
29712;SDS011;16623;53.632;10.016;2023-06-19T13:51:21;9.13;;;5.28;;
29712;SDS011;16623;53.632;10.016;2023-06-19T13:53:47;10.55;;;4.75;;
29712;SDS011;16623;53.632;10.016;2023-06-19T13:56:13;7.70;;;5.18;;
29712;SDS011;16623;53.632;10.016;2023-06-19T13:58:39;5.95;;;4.45;;
29712;SDS011;16623;53.632;10.016;2023-06-19T14:01:05;10.02;;;5.00;;
29712;SDS011;16623;53.632;10.016;2023-06-19T14:03:31;6.60;;;4.13;;
29712;SDS011;16623;53.632;10.016;2023-06-19T14:05:56;13.00;;;4.78;;
29712;SDS011;16623;53.632;10.016;2023-06-19T14:08:22;9.38;;;4.35;;
29712;SDS011;16623;53.632;10.016;2023-06-19T14:10:49;11.07;;;4.18;;
29712;SDS011;16623;53.632;10.016;2023-06-19T14:13:14;5.57;;;4.57;;
29712;SDS011;16623;53.632;10.016;2023-06-19T14:15:40;7.93;;;4.45;;
29712;SDS011;16623;53.632;10.016;2023-06-19T14:18:06;7.00;;;4.32;;
29712;SDS011;16623;53.632;10.016;2023-06-19T14:20:31;5.88;;;4.38;;
29712;SDS011;16623;53.632;10.016;2023-06-19T14:22:57;6.15;;;4.63;;
29712;SDS011;16623;53.632;10.016;2023-06-19T14:25:22;8.63;;;4.97;;
29712;SDS011;16623;53.632;10.016;2023-06-19T14:27:48;8.27;;;4.47;;
29712;SDS011;16623;53.632;10.016;2023-06-19T14:30:13;5.20;;;4.32;;
29712;SDS011;16623;53.632;10.016;2023-06-19T14:32:39;6.65;;;5.15;;